createdAt,value
2019-01-19T19:16:50.302Z,25.90
2019-01-19T19:19:22.555Z,15.40
2019-01-19T19:21:54.820Z,22.63
2019-01-19T19:24:27.049Z,24.50
2019-01-19T19:26:59.426Z,21.70
2019-01-19T19:29:31.860Z,20.77
2019-01-19T19:32:04.092Z,19.27
2019-01-19T19:34:37.310Z,21.47
2019-01-19T19:37:09.402Z,22.93
2019-01-19T19:39:41.643Z,25.77
2019-01-19T19:42:13.830Z,18.90
2019-01-19T19:44:47.309Z,20.50
2019-01-19T19:47:19.412Z,26.00
2019-01-19T19:49:52.283Z,24.60
2019-01-19T19:52:19.868Z,21.93
2019-01-19T19:54:49.463Z,23.00
2019-01-19T19:57:15.890Z,22.33
2019-01-19T19:59:42.246Z,19.90
2019-01-19T20:02:08.791Z,23.73
2019-01-19T20:04:35.205Z,23.97
2019-01-19T20:07:05.343Z,24.33
2019-01-19T20:09:32.788Z,26.53
2019-01-19T20:12:01.290Z,28.27
2019-01-19T20:14:27.659Z,31.53
2019-01-19T20:16:54.374Z,28.40
2019-01-19T20:19:21.169Z,28.63
2019-01-19T20:21:48.286Z,33.33
2019-01-19T20:24:14.685Z,29.37
2019-01-19T20:26:41.064Z,34.10
2019-01-19T20:29:07.964Z,27.30
2019-01-19T20:31:35.761Z,28.53
2019-01-19T20:34:02.165Z,28.80
2019-01-19T20:36:28.569Z,27.97
2019-01-19T20:38:55.011Z,31.47
2019-01-19T20:41:21.600Z,25.97
2019-01-19T20:43:48.285Z,27.80
2019-01-19T20:46:14.810Z,27.50
2019-01-19T20:48:43.118Z,27.63
2019-01-19T20:51:09.564Z,36.67
2019-01-19T20:53:36.022Z,24.47
2019-01-19T20:56:03.484Z,27.50
2019-01-19T20:58:29.874Z,29.03
2019-01-19T21:00:56.507Z,34.37
2019-01-19T21:03:22.938Z,28.77
2019-01-19T21:05:50.878Z,27.60
2019-01-19T21:08:17.328Z,27.47
2019-01-19T21:10:44.614Z,31.00
2019-01-19T21:13:11.021Z,33.27
2019-01-19T21:15:37.548Z,30.23
2019-01-19T21:18:04.651Z,33.40
2019-01-19T21:20:31.250Z,28.97
2019-01-19T21:22:57.707Z,29.13
2019-01-19T21:25:26.472Z,30.20
2019-01-19T21:27:53.135Z,25.93
2019-01-19T21:30:19.690Z,29.33
2019-01-19T21:32:46.486Z,26.03
2019-01-19T21:35:13.060Z,30.77
2019-01-19T21:37:39.447Z,27.70
2019-01-19T21:40:10.203Z,28.23
2019-01-19T21:42:36.933Z,29.90
2019-01-19T21:45:09.751Z,27.90
2019-01-19T21:47:36.340Z,30.17
2019-01-19T21:50:05.814Z,29.93
2019-01-19T21:52:32.372Z,33.23
2019-01-19T21:55:00.803Z,30.37
2019-01-19T21:57:27.330Z,29.47
2019-01-19T21:59:53.985Z,30.97
2019-01-19T22:02:20.680Z,33.27
2019-01-19T22:04:47.665Z,30.90
2019-01-19T22:07:15.673Z,35.63
2019-01-19T22:09:42.171Z,34.67
2019-01-19T22:12:09.776Z,31.70
2019-01-19T22:14:36.274Z,35.90
2019-01-19T22:17:02.880Z,33.03
2019-01-19T22:19:29.455Z,35.90
2019-01-19T22:21:55.949Z,37.27
2019-01-19T22:24:23.004Z,40.27
2019-01-19T22:26:53.426Z,40.53
2019-01-19T22:29:20.072Z,42.20
2019-01-19T22:31:46.763Z,44.40
2019-01-19T22:34:13.189Z,44.33
2019-01-19T22:36:39.813Z,47.93
2019-01-19T22:39:06.748Z,46.60
2019-01-19T22:41:33.170Z,44.97
2019-01-19T22:43:59.685Z,52.63
2019-01-19T22:46:26.143Z,48.67
2019-01-19T22:48:52.615Z,49.67
2019-01-19T22:51:19.111Z,50.80
2019-01-19T22:53:46.047Z,55.27
2019-01-19T22:56:12.446Z,49.87
2019-01-19T22:58:38.876Z,51.37
2019-01-19T23:01:11.039Z,46.90
2019-01-19T23:03:37.592Z,48.67
2019-01-19T23:06:04.168Z,49.03
2019-01-19T23:08:33.592Z,48.17
2019-01-19T23:11:01.230Z,47.20
2019-01-19T23:13:28.100Z,50.23
2019-01-19T23:15:54.523Z,41.10
2019-01-19T23:18:20.943Z,42.83
2019-01-19T23:20:47.796Z,46.17
2019-01-19T23:23:14.330Z,44.27
2019-01-19T23:25:41.510Z,41.93
2019-01-19T23:28:08.026Z,44.00
2019-01-19T23:30:34.672Z,49.97
2019-01-19T23:33:01.235Z,46.13
2019-01-19T23:35:27.819Z,44.03
2019-01-19T23:37:54.226Z,43.67
2019-01-19T23:40:20.602Z,40.23
2019-01-19T23:42:47.554Z,45.97
2019-01-19T23:45:14.068Z,43.70
2019-01-19T23:47:40.633Z,41.70
2019-01-19T23:50:12.054Z,42.17
2019-01-19T23:52:38.476Z,44.47
2019-01-19T23:55:05.643Z,50.83
2019-01-19T23:57:32.177Z,47.00
2019-01-19T23:59:58.703Z,45.20
